Time;durP1;ratioP1;P1;durP2;ratioP2;P2;SDS_P1;SDS_P2;PMS_P1;PMS_P2;Temp;Humidity;BMP_temperature;BMP_pressure;BME280_temperature;BME280_humidity;BME280_pressure;Samples;Min_cycle;Max_cycle;Signal;HPM_P1;HPM_P2
2022/05/01 00:01:33;;;;;;;7.70;4.63;;;;;;;10.49;91.01;100932.91;5051367;28;20402;-77
2022/05/01 00:03:59;;;;;;;8.18;4.80;;;;;;;10.75;90.55;100958.09;5034666;28;20072;-77
2022/05/01 00:06:24;;;;;;;11.38;4.55;;;;;;;10.45;90.58;100907.75;5031968;28;20033;-79
2022/05/01 00:08:50;;;;;;;7.75;4.53;;;;;;;10.79;90.31;100960.91;5031880;28;20479;-77
2022/05/01 00:11:15;;;;;;;8.02;4.55;;;;;;;10.64;90.40;100949.88;5037909;28;20039;-78
2022/05/01 00:13:41;;;;;;;7.50;4.30;;;;;;;10.55;90.90;100931.41;5046620;28;20030;-78
2022/05/01 00:16:07;;;;;;;10.20;4.90;;;;;;;10.76;90.41;100957.31;5050559;28;20437;-79
2022/05/01 00:18:33;;;;;;;6.78;4.93;;;;;;;10.91;89.85;100975.16;5033208;28;20036;-77
2022/05/01 00:20:59;;;;;;;7.78;4.45;;;;;;;10.83;89.14;100962.78;5050767;28;20036;-77
2022/05/01 00:23:24;;;;;;;10.38;5.35;;;;;;;10.81;89.39;100948.91;5050234;28;20029;-77
2022/05/01 00:25:50;;;;;;;6.90;4.88;;;;;;;10.81;89.73;100971.28;5047364;28;20463;-77
2022/05/01 00:28:15;;;;;;;7.63;4.95;;;;;;;10.38;91.48;100954.78;5050696;28;20771;-79
2022/05/01 00:30:41;;;;;;;7.32;4.68;;;;;;;10.31;92.07;100961.31;5050500;28;20478;-78
2022/05/01 00:38:36;;;;;;;7.70;4.40;;;;;;;10.58;88.63;100934.13;5050417;28;20407;-79
2022/05/01 00:41:09;;;;;;;6.22;4.30;;;;;;;11.02;87.13;100979.09;5050745;28;20029;-77
2022/05/01 00:43:56;;;;;;;8.60;4.68;;;;;;;11.07;85.77;100987.94;5050306;28;20171;-76
2022/05/01 00:46:23;;;;;;;10.75;4.80;;;;;;;11.19;85.86;100979.84;5049867;28;20032;-76
2022/05/01 00:48:49;;;;;;;7.60;4.85;;;;;;;11.31;83.61;100988.09;5050235;28;20544;-76
2022/05/01 00:51:15;;;;;;;6.20;4.57;;;;;;;11.34;84.03;100982.19;5014773;28;20041;-77
2022/05/01 00:53:41;;;;;;;6.10;4.40;;;;;;;11.15;85.18;100976.22;5050272;28;20070;-77
2022/05/01 00:56:07;;;;;;;8.57;4.60;;;;;;;10.73;87.25;100978.72;5050412;28;20494;-77
2022/05/01 00:58:33;;;;;;;7.68;3.97;;;;;;;10.38;90.03;100990.00;5050280;28;20028;-78
2022/05/01 01:00:59;;;;;;;6.63;4.50;;;;;;;10.03;90.82;100948.81;5049498;28;20048;-78
2022/05/01 01:03:25;;;;;;;6.43;4.60;;;;;;;10.13;90.74;100971.66;5049795;28;20017;-79
2022/05/01 01:05:50;;;;;;;7.78;4.53;;;;;;;10.35;90.31;100994.19;5049579;28;20497;-77
2022/05/01 01:08:15;;;;;;;6.75;4.53;;;;;;;9.88;91.64;100960.19;5042876;28;20100;-78
2022/05/01 01:10:41;;;;;;;6.68;4.35;;;;;;;9.88;92.70;100983.41;5030754;28;20033;-77
2022/05/01 01:13:06;;;;;;;8.57;4.50;;;;;;;9.87;91.77;100937.78;5030890;28;20021;-76
2022/05/01 01:15:34;;;;;;;8.75;5.25;;;;;;;10.12;90.76;100961.25;5030712;28;20056;-77
2022/05/01 01:17:59;;;;;;;10.27;5.00;;;;;;;10.30;90.03;100971.56;5031043;28;20029;-76
2022/05/01 01:20:26;;;;;;;8.38;4.78;;;;;;;10.49;89.55;100981.06;5031016;28;20035;-76
2022/05/01 01:22:55;;;;;;;7.47;4.90;;;;;;;10.42;89.32;100997.97;5030836;28;20544;-76
2022/05/01 01:25:29;;;;;;;7.57;4.70;;;;;;;10.29;89.44;100974.94;5030428;28;20037;-77
2022/05/01 01:27:59;;;;;;;7.88;4.65;;;;;;;10.19;88.92;100943.56;5030084;28;20045;-75
2022/05/01 01:33:10;;;;;;;7.13;4.80;;;;;;;10.61;87.86;100997.09;5030412;28;20048;-76
2022/05/01 01:35:38;;;;;;;6.22;4.82;;;;;;;10.53;87.95;101003.63;5029981;28;20455;-76
2022/05/01 01:38:04;;;;;;;6.38;4.78;;;;;;;10.45;87.98;100995.50;5030367;28;20025;-76
2022/05/01 01:40:40;;;;;;;7.30;4.60;;;;;;;10.29;88.49;100962.06;5030315;28;20033;-76
2022/05/01 01:43:06;;;;;;;10.25;5.00;;;;;;;10.49;87.61;100971.63;5030841;28;20064;-77
2022/05/01 01:45:33;;;;;;;7.97;4.93;;;;;;;10.02;90.75;101011.56;5030690;28;20433;-76
2022/05/01 01:48:16;;;;;;;6.32;4.38;;;;;;;10.10;90.95;101006.75;5030373;28;20037;-76
2022/05/01 01:50:42;;;;;;;6.43;4.47;;;;;;;10.24;89.70;100995.38;5030044;28;20411;-76
2022/05/01 01:53:09;;;;;;;6.75;4.53;;;;;;;10.00;89.73;100970.19;5030004;28;20033;-77
2022/05/01 01:55:38;;;;;;;7.28;4.70;;;;;;;9.81;90.42;100947.81;5030521;28;20029;-78
2022/05/01 01:58:05;;;;;;;9.77;5.13;;;;;;;9.96;91.71;100994.06;5030420;28;20025;-76
2022/05/01 02:00:31;;;;;;;8.50;5.28;;;;;;;9.79;92.12;100979.50;5030231;28;20033;-76
2022/05/01 02:02:58;;;;;;;8.10;5.38;;;;;;;9.91;92.15;100986.94;5030232;28;20400;-77
2022/05/01 02:05:23;;;;;;;10.57;4.90;;;;;;;10.06;91.26;100982.50;5029679;28;20499;-77
2022/05/01 02:07:48;;;;;;;9.27;5.15;;;;;;;10.18;89.19;100971.88;5029887;28;20033;-77
2022/05/01 02:10:14;;;;;;;7.53;4.78;;;;;;;10.19;87.44;100974.53;5029794;28;20034;-76
2022/05/01 02:12:40;;;;;;;5.90;4.25;;;;;;;10.18;86.60;100953.81;5030404;28;20037;-76
2022/05/01 02:15:06;;;;;;;7.95;5.00;;;;;;;10.31;85.84;100948.41;5030010;28;20434;-77
2022/05/01 02:17:31;;;;;;;7.30;4.57;;;;;;;10.26;85.24;100923.22;5030563;28;20021;-79
2022/05/01 02:19:57;;;;;;;6.07;4.55;;;;;;;10.13;85.49;100919.16;5030070;28;20545;-77
2022/05/01 02:22:23;;;;;;;8.43;4.80;;;;;;;9.84;86.88;100898.97;5030244;28;20411;-77
2022/05/01 02:24:49;;;;;;;8.82;5.20;;;;;;;10.18;87.18;100946.06;5030227;28;20096;-77
2022/05/01 02:27:14;;;;;;;7.05;4.85;;;;;;;9.88;87.77;100899.97;5030106;28;20099;-76
2022/05/01 02:29:42;;;;;;;8.73;4.85;;;;;;;10.24;87.22;100937.72;5030113;28;20029;-77
2022/05/01 02:32:07;;;;;;;9.73;5.25;;;;;;;10.19;86.26;100907.44;5030041;28;20021;-77
2022/05/01 02:34:33;;;;;;;6.80;5.07;;;;;;;10.46;86.39;100948.25;5029818;28;20036;-77
2022/05/01 02:36:59;;;;;;;7.00;5.00;;;;;;;10.26;87.71;100964.50;5029674;28;20037;-77
2022/05/01 02:39:24;;;;;;;8.02;5.10;;;;;;;9.86;88.37;100951.50;5029945;28;20495;-77
2022/05/01 02:41:50;;;;;;;9.38;5.25;;;;;;;9.72;89.88;100942.22;5029894;28;20072;-77
2022/05/01 02:44:16;;;;;;;9.63;6.10;;;;;;;9.69;89.80;100924.03;5011211;28;20041;-76
2022/05/01 02:46:42;;;;;;;11.85;5.07;;;;;;;9.76;89.07;100920.94;5030117;28;20080;-77
2022/05/01 02:49:08;;;;;;;7.75;5.00;;;;;;;9.58;89.46;100935.50;5032322;28;20030;-77
2022/05/01 02:51:34;;;;;;;9.65;5.60;;;;;;;9.22;90.28;100920.88;5033663;28;20026;-76
2022/05/01 02:54:01;;;;;;;9.38;4.82;;;;;;;8.92;92.15;100943.41;5032386;28;20029;-77
2022/05/01 02:56:27;;;;;;;13.70;5.30;;;;;;;8.65;92.98;100931.78;5033596;28;20033;-76
2022/05/01 02:58:52;;;;;;;7.28;4.85;;;;;;;8.56;93.09;100952.78;5033336;28;20038;-76
2022/05/01 03:01:18;;;;;;;8.18;5.45;;;;;;;8.65;93.42;100942.06;5033205;28;20101;-77
2022/05/01 03:03:43;;;;;;;7.22;5.10;;;;;;;8.29;92.40;100869.81;5033200;28;20030;-77
2022/05/01 03:06:09;;;;;;;9.73;5.57;;;;;;;8.78;91.70;100955.59;5033382;28;20032;-76
2022/05/01 03:08:34;;;;;;;7.18;5.38;;;;;;;8.56;91.77;100939.91;5033160;28;20036;-76
2022/05/01 03:11:01;;;;;;;8.13;5.07;;;;;;;8.30;92.80;100928.19;5033081;28;20030;-76
2022/05/01 03:13:27;;;;;;;8.65;5.57;;;;;;;8.60;92.44;100942.63;5033107;28;20039;-76
2022/05/01 03:15:52;;;;;;;7.78;5.40;;;;;;;8.66;92.15;100932.66;5033250;28;20104;-76
2022/05/01 03:23:46;;;;;;;7.25;5.43;;;;;;;8.98;89.98;100959.19;5033079;28;20557;-78
2022/05/01 03:26:12;;;;;;;7.18;5.30;;;;;;;8.96;88.14;100953.97;5032629;28;20053;-77
2022/05/01 03:28:39;;;;;;;8.32;4.95;;;;;;;8.56;88.06;100865.28;5033215;28;20029;-78
2022/05/01 03:31:09;;;;;;;9.68;5.65;;;;;;;9.18;88.14;100966.25;5032639;28;20083;-77
2022/05/01 03:33:35;;;;;;;8.73;5.57;;;;;;;9.25;87.85;100959.69;5032915;28;20030;-78
2022/05/01 03:36:05;;;;;;;12.57;5.70;;;;;;;9.12;87.84;100937.59;5032630;28;20480;-78
2022/05/01 03:38:30;;;;;;;8.43;5.93;;;;;;;8.89;88.40;100931.28;5013883;28;20061;-76
2022/05/01 03:40:56;;;;;;;7.82;5.35;;;;;;;8.87;90.46;100971.50;5032654;28;20064;-77
2022/05/01 03:43:21;;;;;;;10.63;5.25;;;;;;;8.88;91.08;100969.03;5032508;28;20029;-75
2022/05/01 03:45:46;;;;;;;7.25;5.70;;;;;;;8.71;92.53;100946.63;5032573;28;20029;-78
2022/05/01 03:48:12;;;;;;;8.43;5.47;;;;;;;8.60;92.93;100979.56;5032336;28;20037;-77
2022/05/01 03:50:38;;;;;;;9.73;5.60;;;;;;;8.49;93.59;100970.38;5032687;28;20033;-77
2022/05/01 03:53:05;;;;;;;9.52;5.63;;;;;;;8.79;92.98;100983.97;5032333;28;20476;-76
2022/05/01 03:55:31;;;;;;;8.40;5.13;;;;;;;8.76;92.59;100973.53;5032300;28;20133;-74
2022/05/01 03:57:58;;;;;;;8.00;5.25;;;;;;;8.72;93.62;100985.34;5032541;28;20427;-78
2022/05/01 04:00:24;;;;;;;8.75;5.60;;;;;;;8.60;94.19;100961.53;5032170;28;20040;-84
2022/05/01 04:02:50;;;;;;;9.23;5.82;;;;;;;8.78;93.79;100976.19;5032026;28;20038;-75
2022/05/01 04:05:15;;;;;;;7.95;5.32;;;;;;;8.94;93.08;100986.47;5032173;28;20037;-76
2022/05/01 04:07:42;;;;;;;9.35;5.82;;;;;;;8.67;93.07;100955.00;5032537;28;20420;-77
2022/05/01 04:10:08;;;;;;;7.03;5.47;;;;;;;8.94;94.18;101001.03;5032312;28;20034;-77
2022/05/01 04:12:39;;;;;;;11.05;6.20;;;;;;;9.00;94.30;101003.94;5031672;28;20037;-76
2022/05/01 04:15:07;;;;;;;8.40;6.18;;;;;;;9.14;93.95;101005.50;5032339;28;20111;-77
2022/05/01 04:17:39;;;;;;;9.13;5.53;;;;;;;9.26;93.33;101001.78;5031911;28;20036;-77
2022/05/01 04:20:12;;;;;;;7.80;6.15;;;;;;;9.45;92.11;100998.47;5032086;28;20037;-77
2022/05/01 04:22:37;;;;;;;10.63;6.28;;;;;;;9.60;91.93;101001.78;5031640;28;20531;-78
2022/05/01 04:25:05;;;;;;;9.35;5.82;;;;;;;9.63;92.03;100983.00;5031854;28;20068;-77
2022/05/01 04:27:30;;;;;;;8.82;5.78;;;;;;;9.82;91.99;100998.59;5031622;28;20160;-77
2022/05/01 04:29:55;;;;;;;8.95;5.80;;;;;;;9.96;92.05;101006.97;5046673;28;20479;-76
2022/05/01 04:32:21;;;;;;;9.90;5.78;;;;;;;9.99;92.86;100990.75;5051630;28;20439;-76
2022/05/01 04:34:46;;;;;;;9.23;5.65;;;;;;;10.06;94.11;100986.81;5051146;28;20380;-75
2022/05/01 04:37:12;;;;;;;12.45;6.78;;;;;;;10.31;95.75;101010.34;5051278;28;20028;-75
2022/05/01 04:39:37;;;;;;;10.98;8.43;;;;;;;10.25;95.75;100973.06;5051344;28;20047;-75
2022/05/01 04:42:03;;;;;;;13.15;6.40;;;;;;;10.46;94.57;100996.41;5051515;28;20108;-77
2022/05/01 04:44:28;;;;;;;12.90;6.40;;;;;;;10.46;95.15;100991.25;5033600;28;20025;-76
2022/05/01 04:46:54;;;;;;;12.20;6.32;;;;;;;10.54;94.61;100979.56;5051584;28;20162;-76
2022/05/01 04:49:19;;;;;;;14.27;6.65;;;;;;;10.69;95.05;100994.88;5051223;28;20100;-75
2022/05/01 04:51:46;;;;;;;14.65;6.25;;;;;;;10.73;94.58;100986.47;5051402;28;20503;-76
2022/05/01 04:54:11;;;;;;;10.48;6.47;;;;;;;10.75;94.50;100971.91;5050784;28;20029;-76
2022/05/01 04:59:20;;;;;;;14.45;9.18;;;;;;;10.44;93.73;100973.13;5051111;28;20086;-74
2022/05/01 05:01:46;;;;;;;14.32;8.77;;;;;;;10.12;94.38;100962.16;5051222;28;20100;-74
2022/05/01 05:04:11;;;;;;;17.70;8.82;;;;;;;10.03;94.72;100978.09;5050940;28;20390;-73
2022/05/01 05:06:37;;;;;;;16.80;8.75;;;;;;;9.95;96.40;100989.72;5050756;28;20111;-74
2022/05/01 05:11:46;;;;;;;17.13;9.27;;;;;;;9.92;96.53;100978.38;5050172;28;20044;-74
2022/05/01 05:14:11;;;;;;;22.20;8.77;;;;;;;10.01;96.87;100981.41;5050923;28;20029;-74
2022/05/01 05:16:37;;;;;;;12.25;7.43;;;;;;;10.24;96.97;100991.91;5050856;28;20036;-74
2022/05/01 05:19:02;;;;;;;15.80;9.00;;;;;;;10.51;95.43;101002.69;5050766;28;20115;-74
2022/05/01 05:21:28;;;;;;;16.80;8.23;;;;;;;10.65;94.62;101005.88;5050731;28;20064;-74
2022/05/01 05:23:55;;;;;;;14.48;6.88;;;;;;;10.76;94.04;100989.16;5050609;28;20076;-74
2022/05/01 05:26:21;;;;;;;11.77;6.72;;;;;;;10.86;94.25;100976.66;5050666;28;20095;-75
2022/05/01 05:28:46;;;;;;;12.40;6.95;;;;;;;10.94;95.07;100999.44;5050759;28;20036;-74
2022/05/01 05:31:12;;;;;;;12.93;7.13;;;;;;;11.03;95.76;101001.53;5050083;28;20028;-73
2022/05/01 05:33:37;;;;;;;10.02;6.63;;;;;;;10.94;95.98;100971.03;5050008;28;20051;-74
2022/05/01 05:36:03;;;;;;;12.95;6.57;;;;;;;11.09;97.26;100996.63;5050331;28;20115;-74
2022/05/01 05:38:29;;;;;;;9.68;6.13;;;;;;;11.27;96.94;100996.53;5050468;28;20031;-75
2022/05/01 05:40:54;;;;;;;11.55;6.95;;;;;;;11.19;95.60;100973.75;5050565;28;20062;-75
2022/05/01 05:43:19;;;;;;;12.23;7.13;;;;;;;11.42;95.15;100995.41;5050288;28;20039;-77
2022/05/01 05:45:45;;;;;;;10.48;7.13;;;;;;;11.16;96.38;100992.59;5050285;28;20025;-77
2022/05/01 05:48:11;;;;;;;13.20;6.78;;;;;;;11.37;97.31;101000.41;5032473;28;20472;-77
2022/05/01 05:50:36;;;;;;;11.30;7.20;;;;;;;11.45;96.53;100978.34;5049865;28;20029;-77
2022/05/01 05:53:02;;;;;;;13.07;7.22;;;;;;;11.79;94.87;101000.41;5050408;28;20032;-77
2022/05/01 05:55:33;;;;;;;11.73;7.43;;;;;;;11.98;93.69;101004.63;5050087;28;20029;-76
2022/05/01 05:57:58;;;;;;;16.23;6.88;;;;;;;12.15;92.63;101001.84;5050507;28;20467;-77
2022/05/01 06:00:24;;;;;;;12.05;6.85;;;;;;;12.18;91.72;100982.97;5049666;28;20052;-78
2022/05/01 06:02:49;;;;;;;14.68;6.88;;;;;;;12.00;92.97;100957.25;5049653;28;20111;-77
2022/05/01 06:05:15;;;;;;;12.70;6.68;;;;;;;12.16;94.12;101005.31;5049679;28;20510;-77
2022/05/01 06:07:40;;;;;;;12.32;6.90;;;;;;;11.90;95.74;101006.00;5050224;28;20029;-77
2022/05/01 06:10:06;;;;;;;9.27;6.80;;;;;;;12.02;96.59;101004.78;5050250;28;20037;-78
2022/05/01 06:12:31;;;;;;;11.75;7.22;;;;;;;11.90;97.22;100961.13;5050005;28;20494;-78
2022/05/01 06:15:03;;;;;;;14.70;7.75;;;;;;;12.25;96.53;100980.66;5050029;28;20032;-77
2022/05/01 06:17:28;;;;;;;10.98;7.10;;;;;;;12.50;95.46;100998.81;5049734;28;20170;-77
2022/05/01 06:19:54;;;;;;;10.00;6.75;;;;;;;12.69;94.54;101000.41;5049809;28;20580;-77
2022/05/01 06:22:19;;;;;;;10.45;6.32;;;;;;;12.83;94.33;101006.09;5050744;28;20039;-76
2022/05/01 06:24:44;;;;;;;10.32;6.25;;;;;;;12.98;93.14;101006.63;5027267;28;20423;-79
2022/05/01 06:27:10;;;;;;;9.48;6.30;;;;;;;13.10;91.67;100988.91;5033433;28;20128;-78
2022/05/01 06:29:35;;;;;;;9.65;6.15;;;;;;;13.21;90.69;100959.91;5039290;28;20048;-79
2022/05/01 06:32:01;;;;;;;10.82;5.80;;;;;;;13.54;89.86;100991.28;5032422;28;20037;-78
2022/05/01 06:34:29;;;;;;;8.70;5.97;;;;;;;13.67;88.78;101002.06;5032835;28;20035;-78
2022/05/01 06:36:54;;;;;;;8.20;5.05;;;;;;;13.70;87.42;100987.50;5032954;28;20030;-77
2022/05/01 06:39:20;;;;;;;8.35;5.03;;;;;;;13.89;85.10;100989.00;5032567;28;20023;-77
2022/05/01 06:41:45;;;;;;;9.57;5.32;;;;;;;14.14;83.35;101000.09;5033649;28;20025;-77
2022/05/01 06:44:10;;;;;;;13.07;5.68;;;;;;;14.21;86.12;100993.41;5033995;28;20060;-77
2022/05/01 06:46:36;;;;;;;22.58;6.85;;;;;;;14.20;84.45;100989.03;5045698;28;20090;-78
2022/05/01 06:49:01;;;;;;;15.70;5.50;;;;;;;14.24;84.36;100981.41;5053032;28;20032;-78
2022/05/01 06:51:27;;;;;;;11.95;5.63;;;;;;;14.48;82.54;100993.34;5052881;28;20057;-75
2022/05/01 06:53:52;;;;;;;25.05;6.30;;;;;;;14.14;81.46;100937.78;5052906;28;20021;-77
2022/05/01 06:56:18;;;;;;;14.60;4.97;;;;;;;14.45;84.03;100989.78;5052915;28;20490;-75
2022/05/01 06:58:43;;;;;;;13.63;5.10;;;;;;;14.60;82.62;100998.00;5017286;28;20570;-79
2022/05/01 07:01:09;;;;;;;19.70;4.97;;;;;;;14.79;82.40;101007.28;5043739;28;20422;-80
2022/05/01 07:03:35;;;;;;;13.68;4.30;;;;;;;14.82;77.50;100991.75;5036880;28;20039;-77
2022/05/01 07:06:02;;;;;;;12.15;4.30;;;;;;;15.03;76.39;100991.44;5041963;28;20043;-77
2022/05/01 07:08:28;;;;;;;9.52;3.92;;;;;;;15.25;76.06;101012.81;5053497;28;20119;-77
2022/05/01 07:10:54;;;;;;;7.03;3.88;;;;;;;15.15;74.82;101003.91;5053198;28;20040;-78
2022/05/01 07:13:19;;;;;;;7.05;3.50;;;;;;;15.40;77.20;101020.16;5052448;28;20098;-78
2022/05/01 07:15:44;;;;;;;14.82;4.22;;;;;;;15.36;74.19;101013.13;5032916;28;20040;-79
2022/05/01 07:18:10;;;;;;;7.30;3.60;;;;;;;15.37;74.45;100984.53;5032698;28;20043;-76
2022/05/01 07:20:35;;;;;;;10.93;4.05;;;;;;;15.59;73.67;101010.22;5032379;28;20056;-77
2022/05/01 07:23:03;;;;;;;14.85;4.50;;;;;;;15.77;69.91;101017.63;5032671;28;20136;-78
2022/05/01 07:25:28;;;;;;;5.03;3.70;;;;;;;15.85;68.64;100998.75;5033241;28;20099;-79
2022/05/01 07:27:54;;;;;;;16.45;4.57;;;;;;;15.82;70.50;100987.38;5033110;28;20591;-77
2022/05/01 07:30:19;;;;;;;20.98;4.93;;;;;;;16.08;72.58;101016.63;5031634;28;20401;-78
2022/05/01 07:32:45;;;;;;;9.55;3.80;;;;;;;15.98;68.95;101009.47;5031647;28;20537;-77
2022/05/01 07:35:10;;;;;;;10.35;3.90;;;;;;;15.96;67.70;100991.22;5032252;28;20665;-76
2022/05/01 07:37:36;;;;;;;8.25;3.75;;;;;;;16.32;69.45;101028.47;5032866;28;20029;-75
2022/05/01 07:40:01;;;;;;;5.88;3.53;;;;;;;16.45;67.75;101027.03;5032704;28;20091;-77
2022/05/01 07:42:26;;;;;;;5.93;3.25;;;;;;;16.47;65.54;101009.66;5032890;28;20108;-77
2022/05/01 07:44:52;;;;;;;8.98;3.60;;;;;;;16.65;69.07;101020.50;5032655;28;20057;-77
2022/05/01 07:47:18;;;;;;;5.50;3.33;;;;;;;16.81;69.36;101016.47;5032525;28;20030;-77
2022/05/01 07:49:44;;;;;;;5.05;3.60;;;;;;;16.83;68.37;101024.31;5032678;28;20034;-77
2022/05/01 07:52:09;;;;;;;8.30;3.60;;;;;;;16.67;66.73;101020.50;5032428;28;20025;-77
2022/05/01 07:54:35;;;;;;;5.15;3.45;;;;;;;16.55;67.22;101018.56;5032620;28;20029;-79
2022/05/01 07:57:00;;;;;;;6.63;3.60;;;;;;;16.39;66.21;101019.94;5032475;28;20025;-77
2022/05/01 07:59:26;;;;;;;5.60;3.30;;;;;;;16.24;66.13;101012.66;5032654;28;20028;-78
2022/05/01 08:01:52;;;;;;;6.40;3.72;;;;;;;16.01;66.54;100988.69;5032380;28;20030;-77
2022/05/01 08:04:29;;;;;;;6.13;3.90;;;;;;;16.13;67.61;101008.94;5032361;28;20476;-77
2022/05/01 08:06:59;;;;;;;6.35;3.40;;;;;;;16.15;66.57;101018.53;5032413;28;20057;-75
2022/05/01 08:09:28;;;;;;;5.82;3.85;;;;;;;16.07;66.73;101020.09;5031097;28;20400;-76
2022/05/01 08:11:54;;;;;;;6.10;3.90;;;;;;;16.05;67.52;101019.19;5031612;28;20068;-75
2022/05/01 08:14:21;;;;;;;6.22;3.50;;;;;;;15.78;66.13;100965.56;5031218;28;20104;-75
2022/05/01 08:16:46;;;;;;;4.35;3.20;;;;;;;16.35;65.08;101020.72;5031315;28;20025;-77
2022/05/01 08:21:56;;;;;;;6.15;3.45;;;;;;;16.51;63.61;101001.09;5031210;28;20544;-76
2022/05/01 08:24:22;;;;;;;6.57;3.17;;;;;;;16.41;63.90;101020.88;5031462;28;20041;-76
2022/05/01 08:26:48;;;;;;;4.63;3.17;;;;;;;16.44;62.94;100996.59;5030542;28;20548;-76
2022/05/01 08:29:15;;;;;;;6.10;3.67;;;;;;;16.56;62.82;100996.84;5031374;28;20053;-75
2022/05/01 08:31:42;;;;;;;5.82;3.30;;;;;;;16.74;62.15;101011.97;5030971;28;20113;-74
2022/05/01 08:34:09;;;;;;;7.30;3.38;;;;;;;16.43;62.66;100977.44;5031433;28;20025;-77
2022/05/01 08:36:36;;;;;;;4.32;3.38;;;;;;;16.56;64.45;101009.88;5031623;28;20033;-76
2022/05/01 08:39:02;;;;;;;5.90;3.50;;;;;;;16.20;62.75;100974.38;5031580;28;20112;-77
2022/05/01 08:41:31;;;;;;;9.23;3.53;;;;;;;16.56;64.40;101007.28;5031406;28;20078;-79
2022/05/01 08:43:57;;;;;;;4.60;3.47;;;;;;;16.63;63.95;101009.13;5031071;28;20026;-77
2022/05/01 08:46:53;;;;;;;8.40;4.07;;;;;;;16.50;64.34;100983.69;5031350;28;20120;-76
2022/05/01 08:49:20;;;;;;;5.18;3.42;;;;;;;16.56;62.40;100995.97;5031579;28;20044;-76
2022/05/01 08:51:48;;;;;;;5.07;3.30;;;;;;;16.55;61.36;101002.91;5030997;28;20051;-79
2022/05/01 08:54:15;;;;;;;4.97;3.30;;;;;;;16.66;60.83;101016.19;5031827;28;20036;-75
2022/05/01 08:56:42;;;;;;;6.72;3.40;;;;;;;16.78;64.94;101012.91;5031448;28;20521;-76
2022/05/01 08:59:10;;;;;;;6.25;3.80;;;;;;;16.55;61.62;100952.50;5031027;28;20017;-77
2022/05/01 09:01:37;;;;;;;3.72;2.95;;;;;;;16.95;62.79;101010.69;5030182;28;20029;-78
2022/05/01 09:04:06;;;;;;;5.80;3.45;;;;;;;16.96;61.00;101002.03;5030359;28;20450;-78
2022/05/01 09:06:35;;;;;;;8.48;3.72;;;;;;;17.25;63.68;100999.94;5030290;28;20112;-78
2022/05/01 09:09:07;;;;;;;6.25;3.20;;;;;;;17.24;59.65;100990.34;5030555;28;20060;-76
2022/05/01 09:14:18;;;;;;;4.85;3.17;;;;;;;17.41;59.38;100989.78;5030629;28;20739;-78
2022/05/01 09:17:21;;;;;;;4.10;2.97;;;;;;;17.63;61.57;100988.38;5030234;28;20071;-82
2022/05/01 09:19:53;;;;;;;4.20;2.55;;;;;;;17.54;56.19;100954.31;5030086;28;20502;-78
2022/05/01 09:22:20;;;;;;;8.68;3.50;;;;;;;17.66;58.29;100979.72;5012583;28;20022;-80
2022/05/01 09:24:52;;;;;;;6.32;3.10;;;;;;;17.73;58.54;100973.75;5030322;28;20029;-78
2022/05/01 09:27:32;;;;;;;5.15;3.10;;;;;;;17.88;58.59;100970.50;5029986;28;20431;-79
2022/05/01 09:30:22;;;;;;;4.75;3.03;;;;;;;17.85;57.76;100923.44;5030047;28;20033;-81
2022/05/01 09:32:48;;;;;;;3.85;2.50;;;;;;;17.98;55.71;100922.81;5029946;28;20028;-77
2022/05/01 09:35:22;;;;;;;5.82;3.33;;;;;;;18.27;56.50;100951.91;5029895;28;20025;-76
2022/05/01 09:37:49;;;;;;;7.47;3.42;;;;;;;18.31;56.40;100944.13;5029791;28;20040;-76
2022/05/01 09:40:29;;;;;;;9.70;3.72;;;;;;;18.00;58.24;100878.41;5011267;28;20029;-77
2022/05/01 09:42:55;;;;;;;6.97;3.85;;;;;;;18.47;57.78;100937.34;5030229;28;20029;-76
2022/05/01 09:45:30;;;;;;;8.80;3.63;;;;;;;18.41;56.30;100906.78;5029554;28;20014;-77
2022/05/01 09:47:55;;;;;;;3.92;2.67;;;;;;;18.73;56.15;100927.19;5029795;28;20136;-76
2022/05/01 09:50:40;;;;;;;6.78;2.80;;;;;;;18.83;56.66;100931.66;5029638;28;20511;-76
2022/05/01 09:53:05;;;;;;;28.10;5.32;;;;;;;18.98;58.21;100930.06;5029823;28;20044;-76
2022/05/01 09:55:31;;;;;;;5.40;3.15;;;;;;;19.05;57.20;100924.94;5029757;28;20471;-77
2022/05/01 09:58:12;;;;;;;4.63;3.05;;;;;;;19.38;55.45;100922.59;5029152;28;20036;-76
2022/05/01 10:00:46;;;;;;;7.90;3.20;;;;;;;19.42;55.86;100908.66;5030069;28;20396;-76
2022/05/01 10:03:41;;;;;;;4.13;3.10;;;;;;;19.62;54.83;100918.41;5029696;28;20033;-76
2022/05/01 10:06:09;;;;;;;5.40;3.40;;;;;;;19.75;56.16;100915.00;4948969;29;20139;-77
2022/05/01 10:08:37;;;;;;;4.30;3.08;;;;;;;19.96;54.86;100895.03;4949296;29;20047;-76
2022/05/01 10:11:04;;;;;;;6.20;3.08;;;;;;;19.98;52.89;100859.25;4948617;29;20390;-76
2022/05/01 10:13:31;;;;;;;3.67;3.00;;;;;;;20.16;57.03;100875.06;4949168;29;20086;-76
2022/05/01 10:15:57;;;;;;;4.15;2.90;;;;;;;20.05;53.26;100882.00;4949095;29;20068;-77
2022/05/01 10:18:25;;;;;;;7.28;3.38;;;;;;;20.09;54.98;100896.84;4948881;29;20524;-78
2022/05/01 10:20:51;;;;;;;4.80;2.90;;;;;;;20.18;52.98;100889.03;4933783;29;20098;-76
2022/05/01 10:23:18;;;;;;;11.52;3.33;;;;;;;20.24;52.69;100889.91;4949900;29;20839;-74
2022/05/01 10:25:51;;;;;;;3.70;2.75;;;;;;;20.19;52.14;100861.06;4949680;29;20235;-76
2022/05/01 10:28:31;;;;;;;4.45;2.90;;;;;;;20.38;52.89;100879.50;4949789;29;20035;-76
2022/05/01 10:35:01;;;;;;;10.73;3.22;;;;;;;20.58;51.96;100877.78;4911878;29;20080;-76
2022/05/01 10:37:26;;;;;;;19.65;4.55;;;;;;;20.73;52.46;100874.34;4911743;29;20044;-77
2022/05/01 10:39:53;;;;;;;23.58;6.05;;;;;;;20.58;53.08;100840.19;4911649;29;20115;-77
2022/05/01 10:42:49;;;;;;;37.33;7.70;;;;;;;20.91;51.46;100865.63;4937760;28;20042;-76
2022/05/01 10:45:23;;;;;;;16.05;3.78;;;;;;;20.55;50.97;100859.44;5008035;28;20037;-76
2022/05/01 10:47:57;;;;;;;10.60;3.30;;;;;;;20.44;51.88;100829.69;5008258;28;20034;-76
2022/05/01 10:50:27;;;;;;;6.85;2.90;;;;;;;20.68;49.65;100840.19;5007762;28;20053;-76
2022/05/01 10:53:05;;;;;;;23.17;6.07;;;;;;;20.91;50.91;100849.00;5007703;28;20033;-74
2022/05/01 10:55:48;;;;;;;13.70;4.07;;;;;;;21.19;54.57;100841.13;5007280;28;20034;-76
2022/05/01 10:58:32;;;;;;;14.70;3.83;;;;;;;21.34;47.20;100822.72;5008161;28;20047;-76
2022/05/01 11:00:57;;;;;;;35.42;7.38;;;;;;;21.50;46.63;100827.03;5007292;28;20030;-75
2022/05/01 11:03:32;;;;;;;13.35;3.15;;;;;;;21.56;47.31;100833.19;5007859;28;20057;-75
2022/05/01 11:06:08;;;;;;;8.77;3.00;;;;;;;21.30;47.87;100842.00;5007575;28;20156;-75
2022/05/01 11:08:36;;;;;;;4.43;2.50;;;;;;;21.38;49.32;100834.94;5025751;28;20048;-76
2022/05/01 11:11:05;;;;;;;3.50;2.47;;;;;;;20.81;50.00;100830.63;5053529;28;20479;-75
2022/05/01 11:13:33;;;;;;;3.15;2.22;;;;;;;20.65;50.76;100828.84;4991852;28;20622;-74
2022/05/01 11:16:00;;;;;;;3.20;2.22;;;;;;;20.30;51.81;100825.28;4992213;28;20042;-76
2022/05/01 11:18:33;;;;;;;4.00;2.38;;;;;;;20.36;51.73;100808.66;4991466;28;20042;-76
2022/05/01 11:21:36;;;;;;;5.03;2.50;;;;;;;20.88;51.28;100813.13;4975854;28;20564;-76
2022/05/01 11:24:04;;;;;;;3.05;2.20;;;;;;;21.16;48.57;100819.25;4895633;29;20053;-76
2022/05/01 11:26:32;;;;;;;4.15;2.47;;;;;;;21.45;46.70;100817.44;4895601;29;20483;-77
2022/05/01 11:29:13;;;;;;;2.92;2.47;;;;;;;21.53;48.33;100809.53;4896170;29;20041;-76
2022/05/01 11:31:39;;;;;;;3.17;2.28;;;;;;;21.71;45.32;100811.25;4895778;29;20495;-75
2022/05/01 11:34:16;;;;;;;3.28;2.17;;;;;;;21.48;44.94;100805.19;4895771;29;20048;-76
2022/05/01 11:36:55;;;;;;;2.13;1.80;;;;;;;21.59;43.40;100788.53;4895669;29;20033;-75
2022/05/01 11:39:21;;;;;;;3.97;2.13;;;;;;;21.83;43.56;100791.94;4895605;29;20049;-75
2022/05/01 11:42:00;;;;;;;7.40;2.75;;;;;;;22.08;45.07;100784.81;4895914;29;20053;-76
2022/05/01 11:44:28;;;;;;;2.85;2.00;;;;;;;22.37;45.84;100797.81;4917883;29;20047;-76
2022/05/01 11:46:57;;;;;;;7.50;2.20;;;;;;;22.40;43.36;100765.34;4952301;29;20035;-78
2022/05/01 11:49:22;;;;;;;5.45;2.90;;;;;;;22.63;44.37;100786.25;4952581;29;20035;-77
2022/05/01 11:51:48;;;;;;;3.45;2.38;;;;;;;21.55;44.46;100792.03;4952644;29;20042;-76
2022/05/01 11:54:18;;;;;;;7.28;2.42;;;;;;;21.83;44.35;100787.53;4952318;29;20042;-76
2022/05/01 12:02:27;;;;;;;3.65;2.13;;;;;;;21.84;44.95;100765.66;5032773;28;20035;-75